sensor_id;sensor_type;location;lat;lon;timestamp;temperature;humidity
12329;DHT22;6230;52.390;10.256;2022-12-01T00:02:24;8.10;77.30
12329;DHT22;6230;52.390;10.256;2022-12-01T00:04:49;8.10;77.20
12329;DHT22;6230;52.390;10.256;2022-12-01T00:07:15;8.10;77.20
12329;DHT22;6230;52.390;10.256;2022-12-01T00:09:40;8.10;77.30
12329;DHT22;6230;52.390;10.256;2022-12-01T00:12:24;8.10;77.30
12329;DHT22;6230;52.390;10.256;2022-12-01T00:14:50;8.10;77.30
12329;DHT22;6230;52.390;10.256;2022-12-01T00:17:19;8.10;77.20
12329;DHT22;6230;52.390;10.256;2022-12-01T00:19:45;8.10;77.20
12329;DHT22;6230;52.390;10.256;2022-12-01T00:22:10;8.10;77.20
12329;DHT22;6230;52.390;10.256;2022-12-01T00:24:36;8.10;77.20
12329;DHT22;6230;52.390;10.256;2022-12-01T00:27:01;8.10;77.20
12329;DHT22;6230;52.390;10.256;2022-12-01T00:29:27;8.10;77.20
12329;DHT22;6230;52.390;10.256;2022-12-01T00:31:52;8.10;77.10
12329;DHT22;6230;52.390;10.256;2022-12-01T00:34:22;8.10;77.10
12329;DHT22;6230;52.390;10.256;2022-12-01T00:36:48;8.10;77.10
12329;DHT22;6230;52.390;10.256;2022-12-01T00:39:13;8.10;77.00
12329;DHT22;6230;52.390;10.256;2022-12-01T00:41:39;8.10;77.10
12329;DHT22;6230;52.390;10.256;2022-12-01T00:44:04;8.10;77.10
12329;DHT22;6230;52.390;10.256;2022-12-01T00:46:30;8.20;77.10
12329;DHT22;6230;52.390;10.256;2022-12-01T00:48:55;8.20;77.00
12329;DHT22;6230;52.390;10.256;2022-12-01T00:51:21;8.20;77.10
12329;DHT22;6230;52.390;10.256;2022-12-01T00:53:46;8.20;77.00
12329;DHT22;6230;52.390;10.256;2022-12-01T00:56:12;8.10;76.90
12329;DHT22;6230;52.390;10.256;2022-12-01T00:58:38;8.10;77.00
12329;DHT22;6230;52.390;10.256;2022-12-01T01:01:04;8.10;77.00
12329;DHT22;6230;52.390;10.256;2022-12-01T01:03:30;8.10;77.00
12329;DHT22;6230;52.390;10.256;2022-12-01T01:06:06;8.10;77.10
12329;DHT22;6230;52.390;10.256;2022-12-01T01:08:31;8.10;77.10
12329;DHT22;6230;52.390;10.256;2022-12-01T01:10:58;8.10;77.00
12329;DHT22;6230;52.390;10.256;2022-12-01T01:13:24;8.10;77.10
12329;DHT22;6230;52.390;10.256;2022-12-01T01:16:01;8.10;77.00
12329;DHT22;6230;52.390;10.256;2022-12-01T01:18:27;8.10;77.00
12329;DHT22;6230;52.390;10.256;2022-12-01T01:20:58;8.00;76.90
12329;DHT22;6230;52.390;10.256;2022-12-01T01:23:24;8.00;77.00
12329;DHT22;6230;52.390;10.256;2022-12-01T01:25:49;8.00;77.00
12329;DHT22;6230;52.390;10.256;2022-12-01T01:28:15;7.90;77.00
12329;DHT22;6230;52.390;10.256;2022-12-01T01:30:40;7.90;77.10
12329;DHT22;6230;52.390;10.256;2022-12-01T01:33:06;7.90;77.10
12329;DHT22;6230;52.390;10.256;2022-12-01T01:35:31;7.90;77.00
12329;DHT22;6230;52.390;10.256;2022-12-01T01:37:57;7.90;77.00
12329;DHT22;6230;52.390;10.256;2022-12-01T01:40:22;7.80;76.90
12329;DHT22;6230;52.390;10.256;2022-12-01T01:42:48;7.80;77.10
12329;DHT22;6230;52.390;10.256;2022-12-01T01:45:29;7.80;77.00
12329;DHT22;6230;52.390;10.256;2022-12-01T01:47:57;7.80;77.10
12329;DHT22;6230;52.390;10.256;2022-12-01T01:50:25;7.80;76.90
12329;DHT22;6230;52.390;10.256;2022-12-01T01:52:58;7.80;76.90
12329;DHT22;6230;52.390;10.256;2022-12-01T01:55:26;7.80;76.90
12329;DHT22;6230;52.390;10.256;2022-12-01T01:57:52;7.70;76.80
12329;DHT22;6230;52.390;10.256;2022-12-01T02:00:20;7.70;76.80
12329;DHT22;6230;52.390;10.256;2022-12-01T02:02:48;7.70;76.80
12329;DHT22;6230;52.390;10.256;2022-12-01T02:05:31;7.70;76.90
12329;DHT22;6230;52.390;10.256;2022-12-01T02:07:58;7.70;76.90
12329;DHT22;6230;52.390;10.256;2022-12-01T02:19:04;7.60;76.60
12329;DHT22;6230;52.390;10.256;2022-12-01T02:24:49;7.50;76.70
12329;DHT22;6230;52.390;10.256;2022-12-01T02:30:35;7.50;76.70
12329;DHT22;6230;52.390;10.256;2022-12-01T02:33:49;7.40;76.80
12329;DHT22;6230;52.390;10.256;2022-12-01T02:36:19;7.40;76.70
12329;DHT22;6230;52.390;10.256;2022-12-01T02:41:38;7.40;76.60
12329;DHT22;6230;52.390;10.256;2022-12-01T02:44:10;7.40;76.60
12329;DHT22;6230;52.390;10.256;2022-12-01T02:49:16;7.40;76.50
12329;DHT22;6230;52.390;10.256;2022-12-01T02:51:43;7.40;76.50
12329;DHT22;6230;52.390;10.256;2022-12-01T02:54:11;7.40;76.50
12329;DHT22;6230;52.390;10.256;2022-12-01T02:56:37;7.40;76.50
12329;DHT22;6230;52.390;10.256;2022-12-01T02:59:11;7.40;76.40
12329;DHT22;6230;52.390;10.256;2022-12-01T03:07:23;7.20;76.20
12329;DHT22;6230;52.390;10.256;2022-12-01T03:16:16;7.10;76.40
12329;DHT22;6230;52.390;10.256;2022-12-01T03:18:52;7.10;76.50
12329;DHT22;6230;52.390;10.256;2022-12-01T03:21:30;7.00;76.40
12329;DHT22;6230;52.390;10.256;2022-12-01T03:24:05;7.00;76.40
12329;DHT22;6230;52.390;10.256;2022-12-01T03:26:34;7.00;76.50
12329;DHT22;6230;52.390;10.256;2022-12-01T03:29:23;7.00;76.50
12329;DHT22;6230;52.390;10.256;2022-12-01T03:31:54;6.90;76.50
12329;DHT22;6230;52.390;10.256;2022-12-01T03:34:31;7.00;76.50
12329;DHT22;6230;52.390;10.256;2022-12-01T03:37:11;7.00;76.50
12329;DHT22;6230;52.390;10.256;2022-12-01T03:39:39;6.90;76.40
12329;DHT22;6230;52.390;10.256;2022-12-01T03:45:04;6.90;76.30
12329;DHT22;6230;52.390;10.256;2022-12-01T03:47:31;7.00;76.40
12329;DHT22;6230;52.390;10.256;2022-12-01T03:50:00;7.00;76.30
12329;DHT22;6230;52.390;10.256;2022-12-01T03:55:23;7.00;76.30
12329;DHT22;6230;52.390;10.256;2022-12-01T03:58:06;7.00;76.20
12329;DHT22;6230;52.390;10.256;2022-12-01T04:00:32;7.00;76.30
12329;DHT22;6230;52.390;10.256;2022-12-01T04:03:00;7.00;76.00
12329;DHT22;6230;52.390;10.256;2022-12-01T04:05:30;6.90;75.90
12329;DHT22;6230;52.390;10.256;2022-12-01T04:07:56;6.90;76.00
12329;DHT22;6230;52.390;10.256;2022-12-01T04:10:22;6.90;76.10
12329;DHT22;6230;52.390;10.256;2022-12-01T04:12:48;6.80;76.10
12329;DHT22;6230;52.390;10.256;2022-12-01T04:15:13;6.80;76.20
12329;DHT22;6230;52.390;10.256;2022-12-01T04:17:43;6.90;76.30
12329;DHT22;6230;52.390;10.256;2022-12-01T04:20:11;6.90;76.10
12329;DHT22;6230;52.390;10.256;2022-12-01T04:22:37;6.90;76.10
12329;DHT22;6230;52.390;10.256;2022-12-01T04:25:04;6.90;76.00
12329;DHT22;6230;52.390;10.256;2022-12-01T04:27:31;6.90;76.00
12329;DHT22;6230;52.390;10.256;2022-12-01T04:29:56;6.80;75.90
12329;DHT22;6230;52.390;10.256;2022-12-01T04:32:22;6.80;75.90
12329;DHT22;6230;52.390;10.256;2022-12-01T04:34:47;6.80;75.90
12329;DHT22;6230;52.390;10.256;2022-12-01T04:37:13;6.80;75.90
12329;DHT22;6230;52.390;10.256;2022-12-01T04:39:38;6.80;76.00
12329;DHT22;6230;52.390;10.256;2022-12-01T04:42:06;6.80;76.00
12329;DHT22;6230;52.390;10.256;2022-12-01T04:44:32;6.80;75.90
12329;DHT22;6230;52.390;10.256;2022-12-01T04:46:57;6.80;75.90
12329;DHT22;6230;52.390;10.256;2022-12-01T04:49:23;6.80;75.80
12329;DHT22;6230;52.390;10.256;2022-12-01T04:51:48;6.80;75.70
12329;DHT22;6230;52.390;10.256;2022-12-01T04:54:15;6.80;75.80
12329;DHT22;6230;52.390;10.256;2022-12-01T04:56:41;6.70;75.70
12329;DHT22;6230;52.390;10.256;2022-12-01T04:59:07;6.70;75.90
12329;DHT22;6230;52.390;10.256;2022-12-01T05:01:32;6.60;75.80
12329;DHT22;6230;52.390;10.256;2022-12-01T05:03:58;6.60;75.90
12329;DHT22;6230;52.390;10.256;2022-12-01T05:06:26;6.50;75.90
12329;DHT22;6230;52.390;10.256;2022-12-01T05:08:55;6.50;76.00
12329;DHT22;6230;52.390;10.256;2022-12-01T05:11:22;6.50;76.00
12329;DHT22;6230;52.390;10.256;2022-12-01T05:13:48;6.50;76.10
12329;DHT22;6230;52.390;10.256;2022-12-01T05:16:19;6.60;76.20
12329;DHT22;6230;52.390;10.256;2022-12-01T05:18:50;6.60;76.00
12329;DHT22;6230;52.390;10.256;2022-12-01T05:21:36;6.60;76.00
12329;DHT22;6230;52.390;10.256;2022-12-01T05:24:02;6.60;75.80
12329;DHT22;6230;52.390;10.256;2022-12-01T05:26:27;6.60;75.80
12329;DHT22;6230;52.390;10.256;2022-12-01T05:28:53;6.60;75.80
12329;DHT22;6230;52.390;10.256;2022-12-01T05:31:18;6.60;75.90
12329;DHT22;6230;52.390;10.256;2022-12-01T05:33:44;6.60;76.80
12329;DHT22;6230;52.390;10.256;2022-12-01T05:36:09;6.60;76.00
12329;DHT22;6230;52.390;10.256;2022-12-01T05:38:35;6.60;75.90
12329;DHT22;6230;52.390;10.256;2022-12-01T05:41:00;6.60;75.90
12329;DHT22;6230;52.390;10.256;2022-12-01T05:43:26;6.60;75.90
12329;DHT22;6230;52.390;10.256;2022-12-01T05:45:52;6.60;75.80
12329;DHT22;6230;52.390;10.256;2022-12-01T05:48:18;6.60;75.80
12329;DHT22;6230;52.390;10.256;2022-12-01T05:50:44;6.60;75.80
12329;DHT22;6230;52.390;10.256;2022-12-01T05:53:10;6.50;75.70
12329;DHT22;6230;52.390;10.256;2022-12-01T05:55:36;6.50;75.70
12329;DHT22;6230;52.390;10.256;2022-12-01T05:58:02;6.50;75.60
12329;DHT22;6230;52.390;10.256;2022-12-01T06:00:28;6.50;75.60
12329;DHT22;6230;52.390;10.256;2022-12-01T06:02:53;6.50;75.60
12329;DHT22;6230;52.390;10.256;2022-12-01T06:05:19;6.50;75.50
12329;DHT22;6230;52.390;10.256;2022-12-01T06:07:45;6.50;75.50
12329;DHT22;6230;52.390;10.256;2022-12-01T06:10:11;6.50;75.50
12329;DHT22;6230;52.390;10.256;2022-12-01T06:12:37;6.50;75.50
12329;DHT22;6230;52.390;10.256;2022-12-01T06:15:04;6.50;75.50
12329;DHT22;6230;52.390;10.256;2022-12-01T06:17:31;6.50;75.50
12329;DHT22;6230;52.390;10.256;2022-12-01T06:19:56;6.50;75.50
12329;DHT22;6230;52.390;10.256;2022-12-01T06:22:22;6.50;75.60
12329;DHT22;6230;52.390;10.256;2022-12-01T06:24:47;6.60;75.50
12329;DHT22;6230;52.390;10.256;2022-12-01T06:27:13;6.60;75.30
12329;DHT22;6230;52.390;10.256;2022-12-01T06:29:38;6.60;75.30
12329;DHT22;6230;52.390;10.256;2022-12-01T06:32:04;6.60;75.30
12329;DHT22;6230;52.390;10.256;2022-12-01T06:34:30;6.60;75.30
12329;DHT22;6230;52.390;10.256;2022-12-01T06:36:55;6.60;75.30
12329;DHT22;6230;52.390;10.256;2022-12-01T06:39:21;6.70;75.30
12329;DHT22;6230;52.390;10.256;2022-12-01T06:41:46;6.70;75.30
12329;DHT22;6230;52.390;10.256;2022-12-01T06:44:12;6.70;75.10
12329;DHT22;6230;52.390;10.256;2022-12-01T06:46:38;6.60;75.00
12329;DHT22;6230;52.390;10.256;2022-12-01T06:49:03;6.50;75.00
12329;DHT22;6230;52.390;10.256;2022-12-01T06:51:29;6.40;75.00
12329;DHT22;6230;52.390;10.256;2022-12-01T06:53:58;6.40;75.30
12329;DHT22;6230;52.390;10.256;2022-12-01T06:56:23;6.30;75.40
12329;DHT22;6230;52.390;10.256;2022-12-01T06:58:49;6.30;75.50
12329;DHT22;6230;52.390;10.256;2022-12-01T07:01:15;6.30;75.50
12329;DHT22;6230;52.390;10.256;2022-12-01T07:03:41;6.30;75.60
12329;DHT22;6230;52.390;10.256;2022-12-01T07:06:07;6.30;75.40
12329;DHT22;6230;52.390;10.256;2022-12-01T07:08:33;6.30;75.50
12329;DHT22;6230;52.390;10.256;2022-12-01T07:11:01;6.40;76.20
12329;DHT22;6230;52.390;10.256;2022-12-01T07:13:28;6.40;75.40
12329;DHT22;6230;52.390;10.256;2022-12-01T07:15:53;6.40;75.30
12329;DHT22;6230;52.390;10.256;2022-12-01T07:18:19;6.40;75.40
12329;DHT22;6230;52.390;10.256;2022-12-01T07:20:45;6.40;75.30
12329;DHT22;6230;52.390;10.256;2022-12-01T07:23:10;6.40;75.10
12329;DHT22;6230;52.390;10.256;2022-12-01T07:25:36;6.30;75.20
12329;DHT22;6230;52.390;10.256;2022-12-01T07:28:02;6.30;76.00
12329;DHT22;6230;52.390;10.256;2022-12-01T07:30:27;6.20;75.30
12329;DHT22;6230;52.390;10.256;2022-12-01T07:32:53;6.20;75.50
12329;DHT22;6230;52.390;10.256;2022-12-01T07:35:18;6.20;75.50
12329;DHT22;6230;52.390;10.256;2022-12-01T07:37:44;6.20;75.50
12329;DHT22;6230;52.390;10.256;2022-12-01T07:40:10;6.30;75.50
12329;DHT22;6230;52.390;10.256;2022-12-01T07:42:39;6.30;75.50
12329;DHT22;6230;52.390;10.256;2022-12-01T07:45:05;6.30;75.40
12329;DHT22;6230;52.390;10.256;2022-12-01T07:47:31;6.30;76.10
12329;DHT22;6230;52.390;10.256;2022-12-01T07:49:56;6.30;75.20
12329;DHT22;6230;52.390;10.256;2022-12-01T07:52:22;6.30;75.40
12329;DHT22;6230;52.390;10.256;2022-12-01T07:54:47;6.30;75.40
12329;DHT22;6230;52.390;10.256;2022-12-01T07:57:13;6.30;75.40
12329;DHT22;6230;52.390;10.256;2022-12-01T07:59:39;6.30;75.40
12329;DHT22;6230;52.390;10.256;2022-12-01T08:02:05;6.30;75.40
12329;DHT22;6230;52.390;10.256;2022-12-01T08:04:30;6.30;75.40
12329;DHT22;6230;52.390;10.256;2022-12-01T08:06:56;6.30;75.40
12329;DHT22;6230;52.390;10.256;2022-12-01T08:09:21;6.30;75.40
12329;DHT22;6230;52.390;10.256;2022-12-01T08:11:48;6.30;75.50
12329;DHT22;6230;52.390;10.256;2022-12-01T08:14:13;6.30;75.50
12329;DHT22;6230;52.390;10.256;2022-12-01T08:16:39;6.30;75.50
12329;DHT22;6230;52.390;10.256;2022-12-01T08:19:04;6.30;75.50
12329;DHT22;6230;52.390;10.256;2022-12-01T08:21:30;6.30;75.40
12329;DHT22;6230;52.390;10.256;2022-12-01T08:23:56;6.30;75.50
12329;DHT22;6230;52.390;10.256;2022-12-01T08:26:23;6.30;75.60
12329;DHT22;6230;52.390;10.256;2022-12-01T08:28:49;6.30;75.60
12329;DHT22;6230;52.390;10.256;2022-12-01T08:31:22;6.30;75.40
12329;DHT22;6230;52.390;10.256;2022-12-01T08:33:48;6.30;75.40
12329;DHT22;6230;52.390;10.256;2022-12-01T08:36:15;6.20;75.50
12329;DHT22;6230;52.390;10.256;2022-12-01T08:38:43;6.20;75.60
12329;DHT22;6230;52.390;10.256;2022-12-01T08:41:09;6.20;75.60
12329;DHT22;6230;52.390;10.256;2022-12-01T08:43:35;6.20;75.60
12329;DHT22;6230;52.390;10.256;2022-12-01T08:46:06;6.30;75.60
12329;DHT22;6230;52.390;10.256;2022-12-01T08:48:32;6.30;75.60
12329;DHT22;6230;52.390;10.256;2022-12-01T08:51:13;6.30;75.50
12329;DHT22;6230;52.390;10.256;2022-12-01T08:53:40;6.30;75.50
12329;DHT22;6230;52.390;10.256;2022-12-01T08:56:13;6.30;75.50
12329;DHT22;6230;52.390;10.256;2022-12-01T08:58:40;6.30;75.60
12329;DHT22;6230;52.390;10.256;2022-12-01T09:01:08;6.30;75.70
12329;DHT22;6230;52.390;10.256;2022-12-01T09:03:35;6.30;75.80
12329;DHT22;6230;52.390;10.256;2022-12-01T09:06:03;6.40;75.80
12329;DHT22;6230;52.390;10.256;2022-12-01T09:08:29;6.40;75.60
12329;DHT22;6230;52.390;10.256;2022-12-01T09:10:59;6.40;75.60
12329;DHT22;6230;52.390;10.256;2022-12-01T09:13:25;6.50;75.60
12329;DHT22;6230;52.390;10.256;2022-12-01T09:16:00;6.50;75.50
12329;DHT22;6230;52.390;10.256;2022-12-01T09:18:26;6.50;75.50
12329;DHT22;6230;52.390;10.256;2022-12-01T09:20:52;6.60;75.50
12329;DHT22;6230;52.390;10.256;2022-12-01T09:23:18;6.60;75.50
12329;DHT22;6230;52.390;10.256;2022-12-01T09:25:43;6.60;75.50
12329;DHT22;6230;52.390;10.256;2022-12-01T09:28:09;6.60;75.60
12329;DHT22;6230;52.390;10.256;2022-12-01T09:30:35;6.60;75.60
12329;DHT22;6230;52.390;10.256;2022-12-01T09:33:00;6.60;75.50
12329;DHT22;6230;52.390;10.256;2022-12-01T09:35:26;6.60;75.60
12329;DHT22;6230;52.390;10.256;2022-12-01T09:37:52;6.60;75.50
12329;DHT22;6230;52.390;10.256;2022-12-01T09:40:17;6.60;75.50
12329;DHT22;6230;52.390;10.256;2022-12-01T09:42:44;6.60;75.50
12329;DHT22;6230;52.390;10.256;2022-12-01T09:45:24;6.60;75.60
12329;DHT22;6230;52.390;10.256;2022-12-01T09:47:50;6.60;75.60
12329;DHT22;6230;52.390;10.256;2022-12-01T09:50:21;6.60;75.50
12329;DHT22;6230;52.390;10.256;2022-12-01T09:55:22;6.60;75.70
12329;DHT22;6230;52.390;10.256;2022-12-01T09:57:52;6.60;75.70
12329;DHT22;6230;52.390;10.256;2022-12-01T10:00:22;6.60;75.70
12329;DHT22;6230;52.390;10.256;2022-12-01T10:03:02;6.70;75.70
12329;DHT22;6230;52.390;10.256;2022-12-01T10:05:41;6.70;75.50
12329;DHT22;6230;52.390;10.256;2022-12-01T10:08:13;6.60;75.50
12329;DHT22;6230;52.390;10.256;2022-12-01T10:10:42;6.60;75.60
12329;DHT22;6230;52.390;10.256;2022-12-01T10:13:22;6.60;75.50
12329;DHT22;6230;52.390;10.256;2022-12-01T10:18:34;6.70;75.60
12329;DHT22;6230;52.390;10.256;2022-12-01T10:21:13;6.70;75.60
12329;DHT22;6230;52.390;10.256;2022-12-01T10:23:51;6.70;75.60
12329;DHT22;6230;52.390;10.256;2022-12-01T10:26:34;6.70;75.60
12329;DHT22;6230;52.390;10.256;2022-12-01T10:29:12;6.70;75.50
12329;DHT22;6230;52.390;10.256;2022-12-01T10:31:54;6.70;75.60
12329;DHT22;6230;52.390;10.256;2022-12-01T10:34:28;6.70;75.50
12329;DHT22;6230;52.390;10.256;2022-12-01T10:36:55;6.70;75.60
12329;DHT22;6230;52.390;10.256;2022-12-01T10:39:29;6.70;75.50
12329;DHT22;6230;52.390;10.256;2022-12-01T10:44:46;6.70;75.60
12329;DHT22;6230;52.390;10.256;2022-12-01T10:47:18;6.70;75.50
12329;DHT22;6230;52.390;10.256;2022-12-01T10:49:45;6.80;75.50
12329;DHT22;6230;52.390;10.256;2022-12-01T10:52:34;6.80;75.40
12329;DHT22;6230;52.390;10.256;2022-12-01T10:55:01;6.80;75.50
12329;DHT22;6230;52.390;10.256;2022-12-01T10:57:29;6.80;75.40
12329;DHT22;6230;52.390;10.256;2022-12-01T10:59:59;6.80;75.40
12329;DHT22;6230;52.390;10.256;2022-12-01T11:02:27;6.80;75.40
12329;DHT22;6230;52.390;10.256;2022-12-01T11:05:02;6.90;75.30
12329;DHT22;6230;52.390;10.256;2022-12-01T11:07:42;6.90;75.20
12329;DHT22;6230;52.390;10.256;2022-12-01T11:10:18;6.90;75.20
12329;DHT22;6230;52.390;10.256;2022-12-01T11:12:52;7.00;75.20
12329;DHT22;6230;52.390;10.256;2022-12-01T11:15:27;7.00;75.20
12329;DHT22;6230;52.390;10.256;2022-12-01T11:18:05;7.00;75.20
12329;DHT22;6230;52.390;10.256;2022-12-01T11:20:37;7.00;75.20
12329;DHT22;6230;52.390;10.256;2022-12-01T11:28:53;7.00;75.00
12329;DHT22;6230;52.390;10.256;2022-12-01T11:31:22;7.00;75.20
12329;DHT22;6230;52.390;10.256;2022-12-01T11:33:51;7.00;75.10
12329;DHT22;6230;52.390;10.256;2022-12-01T11:36:24;6.90;75.00
12329;DHT22;6230;52.390;10.256;2022-12-01T11:38:54;6.90;75.10
12329;DHT22;6230;52.390;10.256;2022-12-01T11:41:28;6.90;75.10
12329;DHT22;6230;52.390;10.256;2022-12-01T11:43:55;7.00;75.20
12329;DHT22;6230;52.390;10.256;2022-12-01T11:46:29;7.00;75.00
12329;DHT22;6230;52.390;10.256;2022-12-01T11:48:59;7.00;74.90
12329;DHT22;6230;52.390;10.256;2022-12-01T11:51:33;7.00;74.90
12329;DHT22;6230;52.390;10.256;2022-12-01T11:54:23;7.10;74.90
12329;DHT22;6230;52.390;10.256;2022-12-01T11:56:50;7.00;74.90
12329;DHT22;6230;52.390;10.256;2022-12-01T11:59:23;7.10;75.00
12329;DHT22;6230;52.390;10.256;2022-12-01T12:01:56;7.10;75.00
12329;DHT22;6230;52.390;10.256;2022-12-01T12:09:50;7.20;74.80
12329;DHT22;6230;52.390;10.256;2022-12-01T12:13:27;7.20;74.70
12329;DHT22;6230;52.390;10.256;2022-12-01T12:22:06;7.00;74.80
12329;DHT22;6230;52.390;10.256;2022-12-01T12:24:52;7.10;74.90
12329;DHT22;6230;52.390;10.256;2022-12-01T12:27:38;7.10;74.90
12329;DHT22;6230;52.390;10.256;2022-12-01T12:33:12;7.00;74.90
12329;DHT22;6230;52.390;10.256;2022-12-01T12:41:32;7.00;74.80
12329;DHT22;6230;52.390;10.256;2022-12-01T12:52:39;7.00;74.80
12329;DHT22;6230;52.390;10.256;2022-12-01T12:58:00;7.00;74.70
12329;DHT22;6230;52.390;10.256;2022-12-01T13:00:28;7.00;74.70
12329;DHT22;6230;52.390;10.256;2022-12-01T13:05:37;6.90;74.80
12329;DHT22;6230;52.390;10.256;2022-12-01T13:08:05;6.90;75.00
12329;DHT22;6230;52.390;10.256;2022-12-01T13:10:58;6.90;75.00
12329;DHT22;6230;52.390;10.256;2022-12-01T13:13:44;6.90;75.00
12329;DHT22;6230;52.390;10.256;2022-12-01T13:16:35;6.90;74.90
12329;DHT22;6230;52.390;10.256;2022-12-01T13:19:06;6.90;74.80
12329;DHT22;6230;52.390;10.256;2022-12-01T13:21:38;6.80;74.90
12329;DHT22;6230;52.390;10.256;2022-12-01T13:24:05;6.80;75.00
12329;DHT22;6230;52.390;10.256;2022-12-01T13:26:34;6.80;74.90
12329;DHT22;6230;52.390;10.256;2022-12-01T13:29:04;6.80;74.90
12329;DHT22;6230;52.390;10.256;2022-12-01T13:31:40;6.80;75.00
12329;DHT22;6230;52.390;10.256;2022-12-01T13:36:48;6.80;75.00
12329;DHT22;6230;52.390;10.256;2022-12-01T13:39:23;6.80;74.90
12329;DHT22;6230;52.390;10.256;2022-12-01T13:42:22;6.80;75.00
12329;DHT22;6230;52.390;10.256;2022-12-01T13:44:54;6.80;75.00
12329;DHT22;6230;52.390;10.256;2022-12-01T13:47:47;6.80;74.80
12329;DHT22;6230;52.390;10.256;2022-12-01T13:58:40;6.80;74.90
12329;DHT22;6230;52.390;10.256;2022-12-01T14:06:42;6.80;75.00
12329;DHT22;6230;52.390;10.256;2022-12-01T14:12:21;6.80;74.90
12329;DHT22;6230;52.390;10.256;2022-12-01T14:14:59;6.80;75.00
12329;DHT22;6230;52.390;10.256;2022-12-01T14:17:29;6.90;74.90
12329;DHT22;6230;52.390;10.256;2022-12-01T14:20:06;6.90;74.90
12329;DHT22;6230;52.390;10.256;2022-12-01T14:22:46;6.90;74.90
12329;DHT22;6230;52.390;10.256;2022-12-01T14:25:26;6.80;74.80
12329;DHT22;6230;52.390;10.256;2022-12-01T14:27:59;6.80;74.90
12329;DHT22;6230;52.390;10.256;2022-12-01T14:36:11;6.80;74.90
12329;DHT22;6230;52.390;10.256;2022-12-01T14:38:39;6.80;74.90
12329;DHT22;6230;52.390;10.256;2022-12-01T14:41:09;6.70;74.90
12329;DHT22;6230;52.390;10.256;2022-12-01T14:43:37;6.70;75.00
12329;DHT22;6230;52.390;10.256;2022-12-01T14:46:25;6.70;75.10
12329;DHT22;6230;52.390;10.256;2022-12-01T14:48:54;6.80;75.10
12329;DHT22;6230;52.390;10.256;2022-12-01T14:51:30;6.80;75.10
12329;DHT22;6230;52.390;10.256;2022-12-01T14:53:58;6.80;75.00
12329;DHT22;6230;52.390;10.256;2022-12-01T14:56:26;6.80;75.80
12329;DHT22;6230;52.390;10.256;2022-12-01T14:59:00;6.80;75.00
12329;DHT22;6230;52.390;10.256;2022-12-01T15:01:33;6.90;75.00
12329;DHT22;6230;52.390;10.256;2022-12-01T15:04:02;6.90;74.90
12329;DHT22;6230;52.390;10.256;2022-12-01T15:06:30;6.90;74.80
12329;DHT22;6230;52.390;10.256;2022-12-01T15:09:12;6.90;74.80
12329;DHT22;6230;52.390;10.256;2022-12-01T15:11:55;6.90;74.80
12329;DHT22;6230;52.390;10.256;2022-12-01T15:14:27;7.00;74.80
12329;DHT22;6230;52.390;10.256;2022-12-01T15:16:53;7.00;74.80
12329;DHT22;6230;52.390;10.256;2022-12-01T15:19:33;6.90;74.70
12329;DHT22;6230;52.390;10.256;2022-12-01T15:22:12;7.00;74.80
12329;DHT22;6230;52.390;10.256;2022-12-01T15:24:38;6.90;74.80
12329;DHT22;6230;52.390;10.256;2022-12-01T15:27:19;7.00;74.80
12329;DHT22;6230;52.390;10.256;2022-12-01T15:29:45;6.90;74.80
12329;DHT22;6230;52.390;10.256;2022-12-01T15:32:15;7.00;74.80
12329;DHT22;6230;52.390;10.256;2022-12-01T15:34:43;6.90;74.80
12329;DHT22;6230;52.390;10.256;2022-12-01T15:37:16;6.90;74.80
12329;DHT22;6230;52.390;10.256;2022-12-01T15:39:45;6.90;74.80
12329;DHT22;6230;52.390;10.256;2022-12-01T15:42:32;6.80;74.80
12329;DHT22;6230;52.390;10.256;2022-12-01T15:45:11;6.80;75.80
12329;DHT22;6230;52.390;10.256;2022-12-01T15:47:45;6.70;75.00
12329;DHT22;6230;52.390;10.256;2022-12-01T15:50:30;6.70;75.20
12329;DHT22;6230;52.390;10.256;2022-12-01T15:53:03;6.70;75.30
12329;DHT22;6230;52.390;10.256;2022-12-01T15:55:31;6.70;75.20
12329;DHT22;6230;52.390;10.256;2022-12-01T15:57:58;6.70;75.10
12329;DHT22;6230;52.390;10.256;2022-12-01T16:00:25;6.70;75.20
12329;DHT22;6230;52.390;10.256;2022-12-01T16:02:55;6.70;75.10
12329;DHT22;6230;52.390;10.256;2022-12-01T16:07:49;6.70;75.30
12329;DHT22;6230;52.390;10.256;2022-12-01T16:10:30;6.60;75.30
12329;DHT22;6230;52.390;10.256;2022-12-01T16:15:59;6.60;75.50
12329;DHT22;6230;52.390;10.256;2022-12-01T16:18:32;6.70;75.40
12329;DHT22;6230;52.390;10.256;2022-12-01T16:21:02;6.60;75.30
12329;DHT22;6230;52.390;10.256;2022-12-01T16:23:28;6.70;75.30
12329;DHT22;6230;52.390;10.256;2022-12-01T16:25:54;6.60;75.30
12329;DHT22;6230;52.390;10.256;2022-12-01T16:28:30;6.60;75.40
12329;DHT22;6230;52.390;10.256;2022-12-01T16:30:56;6.70;75.40
12329;DHT22;6230;52.390;10.256;2022-12-01T16:33:23;6.70;75.30
12329;DHT22;6230;52.390;10.256;2022-12-01T16:35:50;6.60;75.30
12329;DHT22;6230;52.390;10.256;2022-12-01T16:38:21;6.60;75.30
12329;DHT22;6230;52.390;10.256;2022-12-01T16:40:49;6.60;75.40
12329;DHT22;6230;52.390;10.256;2022-12-01T16:43:16;6.60;75.30
12329;DHT22;6230;52.390;10.256;2022-12-01T16:45:43;6.60;75.20
12329;DHT22;6230;52.390;10.256;2022-12-01T16:48:09;6.60;75.30
12329;DHT22;6230;52.390;10.256;2022-12-01T16:50:37;6.50;75.30
12329;DHT22;6230;52.390;10.256;2022-12-01T16:53:03;6.50;75.30
12329;DHT22;6230;52.390;10.256;2022-12-01T16:55:53;6.50;75.40
12329;DHT22;6230;52.390;10.256;2022-12-01T16:58:19;6.50;75.50
12329;DHT22;6230;52.390;10.256;2022-12-01T17:00:45;6.60;75.40
12329;DHT22;6230;52.390;10.256;2022-12-01T17:03:17;6.60;75.40
12329;DHT22;6230;52.390;10.256;2022-12-01T17:05:43;6.60;75.40
12329;DHT22;6230;52.390;10.256;2022-12-01T17:08:08;6.60;75.30
12329;DHT22;6230;52.390;10.256;2022-12-01T17:10:34;6.50;76.10
12329;DHT22;6230;52.390;10.256;2022-12-01T17:12:59;6.50;75.30
12329;DHT22;6230;52.390;10.256;2022-12-01T17:15:25;6.50;75.30
12329;DHT22;6230;52.390;10.256;2022-12-01T17:17:50;6.50;75.40
12329;DHT22;6230;52.390;10.256;2022-12-01T17:20:17;6.50;75.50
12329;DHT22;6230;52.390;10.256;2022-12-01T17:22:43;6.50;75.40
12329;DHT22;6230;52.390;10.256;2022-12-01T17:25:09;6.50;75.40
12329;DHT22;6230;52.390;10.256;2022-12-01T17:27:35;6.50;75.40
12329;DHT22;6230;52.390;10.256;2022-12-01T17:30:01;6.50;75.40
12329;DHT22;6230;52.390;10.256;2022-12-01T17:32:27;6.40;75.50
12329;DHT22;6230;52.390;10.256;2022-12-01T17:34:53;6.50;75.60
12329;DHT22;6230;52.390;10.256;2022-12-01T17:37:19;6.50;75.50
12329;DHT22;6230;52.390;10.256;2022-12-01T17:39:44;6.50;75.40
12329;DHT22;6230;52.390;10.256;2022-12-01T17:42:10;6.50;75.40
12329;DHT22;6230;52.390;10.256;2022-12-01T17:44:35;6.50;76.10
12329;DHT22;6230;52.390;10.256;2022-12-01T17:47:01;6.50;75.40
12329;DHT22;6230;52.390;10.256;2022-12-01T17:49:27;6.50;75.40
12329;DHT22;6230;52.390;10.256;2022-12-01T17:51:52;6.40;75.30
12329;DHT22;6230;52.390;10.256;2022-12-01T17:54:18;6.40;75.40
12329;DHT22;6230;52.390;10.256;2022-12-01T17:56:44;6.40;75.50
12329;DHT22;6230;52.390;10.256;2022-12-01T17:59:09;6.40;75.50